Time;durP1;ratioP1;P1;durP2;ratioP2;P2;SDS_P1;SDS_P2;PMS_P1;PMS_P2;Temp;Humidity;BMP_temperature;BMP_pressure;BME280_temperature;BME280_humidity;BME280_pressure;Samples;Min_cycle;Max_cycle;Signal;HPM_P1;HPM_P2
2024/01/12 00:00:45;;;;;;;17.83;4.45;;;1.20;99.90;;;;;;5012808;28;20049;-78
2024/01/12 00:03:11;;;;;;;12.77;4.30;;;1.20;99.90;;;;;;4995281;28;20131;-74
2024/01/12 00:05:36;;;;;;;9.90;3.97;;;1.20;99.90;;;;;;5013249;28;20134;-74
2024/01/12 00:08:02;;;;;;;22.70;4.78;;;1.10;99.90;;;;;;5012984;28;20117;-75
2024/01/12 00:10:28;;;;;;;19.08;4.43;;;1.20;99.90;;;;;;5013479;28;20041;-73
2024/01/12 00:12:53;;;;;;;19.02;4.55;;;1.20;99.90;;;;;;5012954;28;20053;-75
2024/01/12 00:15:19;;;;;;;15.32;4.60;;;1.20;99.90;;;;;;5012780;28;20052;-75
2024/01/12 00:17:45;;;;;;;15.13;3.70;;;2.00;99.90;;;;;;5011962;28;20400;-74
2024/01/12 00:20:11;;;;;;;18.27;5.43;;;1.20;99.90;;;;;;5012599;28;20049;-74
2024/01/12 00:22:36;;;;;;;16.85;4.10;;;1.60;99.90;;;;;;5012922;28;20100;-74
2024/01/12 00:25:02;;;;;;;18.92;4.45;;;1.20;99.90;;;;;;5012752;28;20049;-74
2024/01/12 00:27:28;;;;;;;19.77;4.97;;;1.20;99.90;;;;;;5012785;28;20048;-74
2024/01/12 00:29:54;;;;;;;23.30;4.65;;;1.30;99.90;;;;;;4994850;28;20405;-74
2024/01/12 00:32:19;;;;;;;17.90;4.47;;;1.30;99.90;;;;;;4993976;28;20415;-73
2024/01/12 00:34:45;;;;;;;16.63;4.30;;;1.30;99.90;;;;;;5012587;28;20038;-74
2024/01/12 00:37:10;;;;;;;22.08;4.78;;;1.30;99.90;;;;;;5012642;28;20046;-74
2024/01/12 00:39:36;;;;;;;20.48;4.70;;;1.30;99.90;;;;;;5012627;28;20042;-75
2024/01/12 00:42:03;;;;;;;19.77;4.68;;;1.20;99.90;;;;;;5012316;28;20128;-74
2024/01/12 00:44:29;;;;;;;16.45;5.47;;;1.30;99.90;;;;;;5012268;28;20048;-73
2024/01/12 00:46:55;;;;;;;18.02;5.60;;;1.30;99.90;;;;;;5012004;28;20049;-73
2024/01/12 00:49:21;;;;;;;20.13;6.03;;;1.40;99.90;;;;;;5011663;28;20108;-74
2024/01/12 00:51:48;;;;;;;15.65;5.72;;;1.40;99.90;;;;;;5012080;28;20049;-74
2024/01/12 00:54:14;;;;;;;15.15;6.05;;;1.40;99.90;;;;;;5012128;28;20129;-78
2024/01/12 00:56:40;;;;;;;19.55;6.32;;;1.40;99.90;;;;;;4994658;28;20038;-74
2024/01/12 00:59:06;;;;;;;21.20;6.38;;;1.40;99.90;;;;;;5012113;28;20571;-74
2024/01/12 01:01:32;;;;;;;17.92;6.07;;;2.00;99.90;;;;;;5011953;28;20100;-74
2024/01/12 01:03:59;;;;;;;22.00;6.65;;;1.50;99.90;;;;;;5011828;28;20041;-74
2024/01/12 01:06:25;;;;;;;18.05;6.70;;;1.50;99.90;;;;;;4993824;28;20092;-74
2024/01/12 01:08:51;;;;;;;17.52;5.82;;;1.50;99.90;;;;;;5011854;28;20046;-73
2024/01/12 01:11:17;;;;;;;17.70;4.30;;;1.50;99.90;;;;;;5012154;28;20042;-73
2024/01/12 01:13:43;;;;;;;11.02;4.65;;;1.60;99.90;;;;;;5011795;28;20810;-74
2024/01/12 01:16:09;;;;;;;14.05;5.00;;;1.60;99.90;;;;;;5011544;28;20057;-74
2024/01/12 01:18:35;;;;;;;19.08;5.20;;;1.50;99.90;;;;;;4994202;28;20136;-74
2024/01/12 01:21:00;;;;;;;16.60;6.00;;;1.50;99.90;;;;;;5011083;28;20153;-73
2024/01/12 01:23:26;;;;;;;15.50;5.57;;;1.50;99.90;;;;;;5011566;28;20042;-74
2024/01/12 01:25:53;;;;;;;13.38;5.05;;;1.50;99.90;;;;;;5011644;28;20045;-79
2024/01/12 01:28:19;;;;;;;15.85;5.57;;;1.50;99.90;;;;;;5011464;28;20176;-76
2024/01/12 01:30:45;;;;;;;15.48;5.20;;;1.50;99.90;;;;;;5011457;28;20049;-74
2024/01/12 01:33:11;;;;;;;17.55;5.45;;;1.50;99.90;;;;;;5003231;28;20378;-74
2024/01/12 01:35:36;;;;;;;16.73;5.38;;;1.40;99.90;;;;;;5011464;28;20041;-74
2024/01/12 01:38:02;;;;;;;16.27;5.63;;;1.50;99.90;;;;;;5010714;28;20037;-76
2024/01/12 01:40:28;;;;;;;15.75;5.05;;;1.50;99.90;;;;;;4993705;28;20560;-75
2024/01/12 01:42:53;;;;;;;17.17;5.30;;;1.50;99.90;;;;;;5011106;28;20128;-74
2024/01/12 01:45:19;;;;;;;12.63;5.07;;;1.40;99.90;;;;;;5010990;28;20050;-73
2024/01/12 01:47:45;;;;;;;12.02;5.68;;;1.40;99.90;;;;;;5010855;28;20062;-75
2024/01/12 01:50:13;;;;;;;13.77;4.25;;;1.40;99.90;;;;;;5011074;28;20049;-75
2024/01/12 01:52:40;;;;;;;15.20;4.50;;;1.30;99.90;;;;;;5010631;28;20057;-74
2024/01/12 01:55:07;;;;;;;13.93;4.45;;;1.30;99.90;;;;;;5011471;28;20077;-78
2024/01/12 01:57:34;;;;;;;11.32;4.30;;;1.20;99.90;;;;;;4993369;28;20081;-75
2024/01/12 01:59:59;;;;;;;10.55;4.10;;;1.20;99.90;;;;;;5010922;28;20452;-74
2024/01/12 02:02:25;;;;;;;19.05;5.05;;;1.90;99.90;;;;;;5010874;28;20108;-74
2024/01/12 02:04:53;;;;;;;19.70;5.50;;;1.10;99.90;;;;;;5010935;28;20050;-78
2024/01/12 02:07:19;;;;;;;15.63;4.85;;;1.20;99.90;;;;;;5011078;28;20056;-73
2024/01/12 02:09:44;;;;;;;14.98;4.40;;;1.20;99.90;;;;;;4992598;28;20037;-74
2024/01/12 02:12:10;;;;;;;12.32;4.45;;;1.10;99.90;;;;;;4992998;28;20057;-74
2024/01/12 02:14:36;;;;;;;14.35;4.32;;;1.10;99.90;;;;;;4993046;28;20057;-76
2024/01/12 02:17:02;;;;;;;15.52;4.90;;;1.10;99.90;;;;;;5010483;28;20496;-75
2024/01/12 02:19:28;;;;;;;16.50;4.72;;;1.10;99.90;;;;;;4993167;28;20080;-74
2024/01/12 02:21:53;;;;;;;14.15;5.35;;;1.10;99.90;;;;;;5010313;28;20041;-74
2024/01/12 02:24:19;;;;;;;12.68;4.93;;;1.00;99.90;;;;;;5010119;28;20050;-76
2024/01/12 02:26:44;;;;;;;11.60;4.88;;;1.00;99.90;;;;;;4992796;28;20577;-74
2024/01/12 02:29:10;;;;;;;10.15;4.63;;;1.00;99.90;;;;;;5010321;28;20116;-74
2024/01/12 02:31:36;;;;;;;13.68;4.25;;;0.90;99.90;;;;;;4992809;28;20131;-74
2024/01/12 02:34:02;;;;;;;16.65;4.75;;;1.00;99.90;;;;;;5010063;28;20135;-74
2024/01/12 02:36:28;;;;;;;15.32;5.43;;;0.90;99.90;;;;;;5010586;28;20401;-74
2024/01/12 02:38:55;;;;;;;11.45;4.55;;;0.90;99.90;;;;;;4992448;28;20053;-74
2024/01/12 02:41:21;;;;;;;14.07;4.93;;;0.90;99.90;;;;;;5010068;28;20052;-74
2024/01/12 02:43:47;;;;;;;11.82;4.80;;;0.90;99.90;;;;;;5010696;28;20472;-74
2024/01/12 02:46:12;;;;;;;15.80;5.63;;;1.00;99.90;;;;;;5009946;28;20133;-76
2024/01/12 02:48:38;;;;;;;13.20;5.90;;;1.00;99.90;;;;;;5010653;28;20113;-75
2024/01/12 02:51:05;;;;;;;17.17;4.95;;;1.00;99.90;;;;;;4992971;28;20101;-75
2024/01/12 02:53:31;;;;;;;14.43;5.68;;;1.00;99.90;;;;;;5001968;28;20053;-74
2024/01/12 02:55:56;;;;;;;14.80;5.10;;;1.10;99.90;;;;;;5013728;28;20539;-74
2024/01/12 02:58:22;;;;;;;15.10;5.32;;;1.10;99.90;;;;;;4996874;28;20140;-74
2024/01/12 03:00:47;;;;;;;18.23;5.70;;;1.10;99.90;;;;;;5014421;28;20121;-75
2024/01/12 03:03:13;;;;;;;17.33;4.82;;;1.10;99.90;;;;;;4996537;28;20519;-75
2024/01/12 03:05:39;;;;;;;26.70;5.45;;;1.00;99.90;;;;;;4996343;28;20119;-76
2024/01/12 03:08:05;;;;;;;19.98;5.40;;;1.00;99.90;;;;;;5014118;28;20034;-75
2024/01/12 03:10:30;;;;;;;12.18;4.40;;;1.00;99.90;;;;;;4996011;28;20046;-74
2024/01/12 03:12:56;;;;;;;10.23;4.55;;;0.90;99.90;;;;;;4995826;28;20073;-74
2024/01/12 03:15:22;;;;;;;12.95;5.10;;;0.80;99.90;;;;;;5013922;28;20065;-73
2024/01/12 03:17:47;;;;;;;16.02;4.55;;;0.70;99.90;;;;;;4996312;28;20400;-75
2024/01/12 03:20:13;;;;;;;12.02;4.82;;;0.80;99.90;;;;;;5013969;28;20133;-75
2024/01/12 03:22:39;;;;;;;12.05;4.82;;;0.70;99.90;;;;;;5013888;28;20046;-74
2024/01/12 03:25:05;;;;;;;10.45;4.57;;;0.70;99.90;;;;;;5013432;28;20485;-74
2024/01/12 03:27:32;;;;;;;10.27;4.25;;;0.60;99.90;;;;;;4996643;28;20069;-74
2024/01/12 03:29:58;;;;;;;12.43;4.88;;;0.50;99.90;;;;;;4994660;28;20049;-74
2024/01/12 03:32:23;;;;;;;12.35;5.15;;;0.50;99.90;;;;;;5012461;28;20044;-74
2024/01/12 03:34:49;;;;;;;12.40;4.95;;;0.60;99.90;;;;;;5014378;28;20053;-74
2024/01/12 03:37:15;;;;;;;11.90;4.95;;;0.60;99.90;;;;;;4994433;28;20200;-74
2024/01/12 03:39:40;;;;;;;17.95;5.43;;;0.60;99.90;;;;;;5013491;28;20390;-73
2024/01/12 03:42:06;;;;;;;13.00;4.65;;;0.60;99.90;;;;;;4996001;28;20558;-74
2024/01/12 03:44:32;;;;;;;16.38;4.80;;;0.60;99.90;;;;;;5012879;28;20042;-74
2024/01/12 03:46:57;;;;;;;12.07;4.63;;;0.60;99.90;;;;;;4995455;28;20136;-75
2024/01/12 03:49:23;;;;;;;18.85;5.65;;;0.60;99.90;;;;;;5013245;28;20115;-74
2024/01/12 03:51:53;;;;;;;12.35;4.95;;;0.70;99.90;;;;;;5013546;28;20157;-74
2024/01/12 03:54:23;;;;;;;15.05;5.53;;;0.70;99.90;;;;;;5005417;28;20046;-74
2024/01/12 03:56:49;;;;;;;15.35;6.07;;;0.70;99.90;;;;;;5013442;28;20049;-75
2024/01/12 03:59:15;;;;;;;12.57;5.15;;;0.80;99.90;;;;;;5012633;28;20049;-78
2024/01/12 04:01:44;;;;;;;11.98;4.70;;;0.80;99.90;;;;;;5012329;28;20792;-75
2024/01/12 04:04:10;;;;;;;19.00;5.88;;;0.80;99.90;;;;;;5013008;28;20141;-74
2024/01/12 04:06:36;;;;;;;17.38;5.90;;;0.80;99.90;;;;;;5012835;28;20139;-74
2024/01/12 04:09:02;;;;;;;11.02;4.88;;;0.80;99.90;;;;;;4995604;28;20089;-74
2024/01/12 04:11:28;;;;;;;17.55;5.38;;;0.80;99.90;;;;;;5012877;28;20071;-74
2024/01/12 04:13:53;;;;;;;10.75;4.85;;;0.80;99.90;;;;;;4995175;28;20124;-73
2024/01/12 04:16:20;;;;;;;17.67;5.05;;;1.50;99.90;;;;;;5012395;28;20409;-73
2024/01/12 04:18:45;;;;;;;18.58;5.68;;;0.90;99.90;;;;;;5013312;28;20089;-73
2024/01/12 04:21:12;;;;;;;17.02;5.82;;;0.90;99.90;;;;;;4995414;28;20445;-73
2024/01/12 04:23:39;;;;;;;12.88;5.45;;;0.90;99.90;;;;;;5012481;28;20046;-73
2024/01/12 04:26:05;;;;;;;9.75;4.72;;;0.90;99.90;;;;;;5012686;28;20477;-73
2024/01/12 04:28:30;;;;;;;14.57;4.78;;;0.90;99.90;;;;;;4994727;28;20053;-75
2024/01/12 04:30:56;;;;;;;17.55;4.85;;;0.90;99.90;;;;;;5012504;28;20552;-74
2024/01/12 04:33:22;;;;;;;17.60;4.75;;;0.80;99.90;;;;;;5012301;28;20486;-74
2024/01/12 04:35:47;;;;;;;19.60;5.68;;;0.90;99.90;;;;;;5012434;28;20096;-74
2024/01/12 04:38:13;;;;;;;14.82;4.97;;;0.90;99.90;;;;;;5012518;28;20092;-74
2024/01/12 04:40:39;;;;;;;17.75;5.60;;;0.90;99.90;;;;;;5012235;28;20038;-74
2024/01/12 04:43:05;;;;;;;14.18;5.38;;;0.90;99.90;;;;;;5000638;28;20049;-74
2024/01/12 04:45:30;;;;;;;12.80;4.90;;;0.90;99.90;;;;;;5012171;28;20424;-74
2024/01/12 04:47:56;;;;;;;18.67;4.90;;;0.90;99.90;;;;;;5011302;28;20053;-74
2024/01/12 04:50:22;;;;;;;18.60;5.32;;;0.90;99.90;;;;;;4994677;28;20049;-74
2024/01/12 04:52:50;;;;;;;12.63;5.43;;;0.90;99.90;;;;;;5010493;28;20049;-74
2024/01/12 04:55:16;;;;;;;15.15;5.32;;;0.90;99.90;;;;;;5011688;28;20077;-76
2024/01/12 04:57:41;;;;;;;20.70;6.05;;;0.90;99.90;;;;;;5009189;28;20464;-73
2024/01/12 05:00:08;;;;;;;15.80;5.47;;;0.90;99.90;;;;;;5010493;28;20141;-75
2024/01/12 05:02:33;;;;;;;13.00;5.30;;;0.90;99.90;;;;;;5011702;28;20053;-76
2024/01/12 05:04:59;;;;;;;19.70;6.03;;;0.90;99.90;;;;;;5012278;28;20048;-76
2024/01/12 05:07:24;;;;;;;16.13;5.53;;;0.90;99.90;;;;;;4994957;28;20104;-76
2024/01/12 05:09:50;;;;;;;13.85;4.57;;;1.00;99.90;;;;;;5011915;28;20100;-74
2024/01/12 05:12:16;;;;;;;15.40;5.20;;;1.00;99.90;;;;;;4994612;28;20125;-74
2024/01/12 05:14:41;;;;;;;21.73;6.13;;;1.00;99.90;;;;;;5012156;28;20058;-75
2024/01/12 05:17:07;;;;;;;15.70;5.40;;;0.90;99.90;;;;;;5005653;28;20042;-74
2024/01/12 05:19:33;;;;;;;15.95;5.10;;;1.00;99.90;;;;;;5010391;28;20061;-76
2024/01/12 05:21:59;;;;;;;15.27;5.07;;;1.00;99.90;;;;;;4994121;28;20044;-75
2024/01/12 05:24:24;;;;;;;24.52;6.72;;;1.00;99.90;;;;;;5011394;28;20084;-75
2024/01/12 05:26:50;;;;;;;13.88;5.22;;;1.00;99.90;;;;;;5011502;28;20120;-74
2024/01/12 05:29:16;;;;;;;12.55;5.07;;;1.00;99.90;;;;;;4993726;28;20204;-75
2024/01/12 05:31:44;;;;;;;12.75;4.85;;;1.00;99.90;;;;;;5011062;28;20042;-75
2024/01/12 05:34:10;;;;;;;13.90;4.95;;;1.00;99.90;;;;;;5011320;28;20045;-73
2024/01/12 05:36:36;;;;;;;16.27;4.93;;;1.00;99.90;;;;;;5011170;28;20050;-74
2024/01/12 05:39:02;;;;;;;19.92;5.65;;;1.00;99.90;;;;;;5011417;28;20053;-75
2024/01/12 05:41:28;;;;;;;18.23;5.88;;;1.10;99.90;;;;;;5011301;28;20085;-74
2024/01/12 05:43:54;;;;;;;21.58;7.10;;;1.10;99.90;;;;;;4993563;28;20169;-74
2024/01/12 05:46:19;;;;;;;21.80;7.60;;;1.20;99.90;;;;;;5010991;28;20069;-76
2024/01/12 05:48:46;;;;;;;14.65;5.28;;;1.20;99.90;;;;;;5011415;28;20499;-74
2024/01/12 05:51:15;;;;;;;16.98;5.60;;;1.20;99.90;;;;;;4992812;28;20056;-75
2024/01/12 05:53:41;;;;;;;12.80;5.55;;;1.20;99.90;;;;;;5011023;28;20049;-75
2024/01/12 05:56:07;;;;;;;17.75;6.72;;;1.30;99.90;;;;;;4993220;28;20405;-73
2024/01/12 05:58:33;;;;;;;20.60;6.43;;;1.30;99.90;;;;;;5010748;28;20041;-74
2024/01/12 06:00:59;;;;;;;18.98;6.03;;;1.30;99.90;;;;;;4993332;28;20437;-74
2024/01/12 06:03:28;;;;;;;16.90;6.45;;;1.30;99.90;;;;;;5010961;28;20046;-77
2024/01/12 06:05:57;;;;;;;13.57;5.82;;;1.30;99.90;;;;;;4992962;28;20503;-73
2024/01/12 06:08:23;;;;;;;19.73;6.75;;;1.30;99.90;;;;;;5010183;28;20073;-75
2024/01/12 06:10:50;;;;;;;17.52;6.60;;;1.30;99.90;;;;;;5010991;28;20139;-74
2024/01/12 06:13:16;;;;;;;17.98;5.93;;;1.30;99.90;;;;;;5010511;28;20057;-75
2024/01/12 06:15:42;;;;;;;16.02;6.22;;;1.30;99.90;;;;;;5007097;28;20518;-75
2024/01/12 06:18:08;;;;;;;19.10;7.40;;;1.40;99.90;;;;;;5006570;28;20034;-75
2024/01/12 06:20:34;;;;;;;19.30;6.75;;;1.40;99.90;;;;;;4992826;28;20131;-73
2024/01/12 06:23:00;;;;;;;27.95;7.05;;;1.30;99.90;;;;;;5009991;28;21786;-74
2024/01/12 06:25:25;;;;;;;15.00;6.40;;;1.40;99.90;;;;;;5010643;28;20054;-76
2024/01/12 06:27:51;;;;;;;23.30;7.45;;;1.40;99.90;;;;;;5008783;28;20037;-76
2024/01/12 06:30:17;;;;;;;19.13;6.18;;;1.50;99.90;;;;;;5010824;28;20125;-73
2024/01/12 06:32:43;;;;;;;18.80;6.38;;;1.50;99.90;;;;;;5010324;28;20131;-75
2024/01/12 06:35:10;;;;;;;18.33;5.93;;;1.40;99.90;;;;;;5010692;28;20050;-75
2024/01/12 06:37:36;;;;;;;33.30;6.70;;;1.70;99.90;;;;;;5010724;28;20409;-74
2024/01/12 06:40:02;;;;;;;19.23;6.03;;;1.50;99.90;;;;;;5009702;28;20041;-74
2024/01/12 06:42:28;;;;;;;25.17;6.93;;;1.50;99.90;;;;;;5010347;28;20046;-74
2024/01/12 06:44:54;;;;;;;28.67;6.28;;;1.60;99.90;;;;;;4992610;28;20129;-74
2024/01/12 06:47:20;;;;;;;20.80;6.20;;;1.60;99.90;;;;;;5010054;28;20147;-74
2024/01/12 06:49:46;;;;;;;28.10;7.25;;;1.60;99.90;;;;;;5010426;28;20046;-74
2024/01/12 06:52:12;;;;;;;18.35;5.75;;;1.60;99.90;;;;;;5010497;28;20057;-74
2024/01/12 06:54:42;;;;;;;34.50;6.57;;;1.60;99.90;;;;;;5009909;28;20030;-74
2024/01/12 06:57:08;;;;;;;27.77;7.13;;;1.70;99.90;;;;;;5010101;28;20512;-76
2024/01/12 06:59:34;;;;;;;19.58;6.22;;;1.70;99.90;;;;;;5010672;28;20046;-75
2024/01/12 07:01:59;;;;;;;23.88;5.55;;;2.00;99.90;;;;;;5009463;28;20132;-75
2024/01/12 07:04:25;;;;;;;21.05;5.38;;;1.70;99.90;;;;;;5010495;28;20117;-74
2024/01/12 07:06:52;;;;;;;19.50;5.75;;;1.70;99.90;;;;;;5010079;28;20061;-74
2024/01/12 07:09:18;;;;;;;22.77;5.32;;;1.70;99.90;;;;;;5010183;28;20454;-75
2024/01/12 07:11:45;;;;;;;23.08;5.45;;;1.80;99.90;;;;;;5009651;28;20401;-74
2024/01/12 07:14:11;;;;;;;19.75;6.03;;;1.80;99.90;;;;;;5010036;28;20058;-75
2024/01/12 07:16:37;;;;;;;24.35;5.18;;;1.80;99.90;;;;;;5001772;28;20038;-76
2024/01/12 07:19:03;;;;;;;20.17;5.25;;;1.80;99.90;;;;;;5010507;28;20046;-76
2024/01/12 07:21:29;;;;;;;23.77;5.13;;;1.80;99.90;;;;;;5010170;28;20045;-75
2024/01/12 07:23:55;;;;;;;20.00;5.07;;;1.80;99.90;;;;;;5009879;28;20229;-76
2024/01/12 07:26:20;;;;;;;22.85;5.68;;;1.80;99.90;;;;;;5009539;28;20038;-75
2024/01/12 07:28:46;;;;;;;25.23;4.40;;;1.80;99.90;;;;;;5009893;28;20046;-74
2024/01/12 07:31:12;;;;;;;27.20;5.18;;;1.80;99.90;;;;;;5010209;28;20093;-75
2024/01/12 07:33:38;;;;;;;24.40;5.28;;;1.90;99.90;;;;;;5009972;28;20045;-78
2024/01/12 07:36:04;;;;;;;23.38;4.68;;;1.90;99.90;;;;;;5009986;28;20041;-76
2024/01/12 07:38:29;;;;;;;27.75;6.05;;;1.90;99.90;;;;;;5010053;28;20480;-75
2024/01/12 07:40:55;;;;;;;27.38;6.15;;;1.90;99.90;;;;;;4993871;28;20374;-76
2024/01/12 07:43:20;;;;;;;20.35;5.85;;;1.90;99.90;;;;;;4995120;28;20050;-75
2024/01/12 07:45:47;;;;;;;18.40;4.95;;;1.90;99.90;;;;;;4995700;28;20489;-76
2024/01/12 07:48:12;;;;;;;18.42;4.05;;;1.90;99.90;;;;;;5013339;28;20484;-75
2024/01/12 07:50:38;;;;;;;28.42;5.10;;;2.20;99.90;;;;;;5013571;28;20042;-75
2024/01/12 07:53:04;;;;;;;22.00;5.22;;;2.00;99.90;;;;;;5012899;28;20060;-75
2024/01/12 07:55:30;;;;;;;32.35;4.30;;;2.00;99.90;;;;;;5013276;28;20072;-75
2024/01/12 07:57:55;;;;;;;26.65;4.43;;;2.00;99.90;;;;;;5012704;28;20457;-75
2024/01/12 08:00:21;;;;;;;21.63;3.92;;;2.00;99.90;;;;;;5013329;28;20046;-74
2024/01/12 08:02:47;;;;;;;20.23;3.53;;;2.40;99.90;;;;;;5013419;28;20505;-76
2024/01/12 08:05:13;;;;;;;25.08;3.53;;;3.20;99.90;;;;;;5013159;28;20042;-75
2024/01/12 08:07:39;;;;;;;30.27;3.58;;;2.20;99.90;;;;;;4995268;28;20313;-75
2024/01/12 08:10:05;;;;;;;16.02;3.30;;;2.20;99.90;;;;;;5012958;28;20041;-75
2024/01/12 08:12:31;;;;;;;20.33;3.20;;;2.30;99.90;;;;;;5012569;28;20501;-74
2024/01/12 08:14:56;;;;;;;20.92;3.58;;;2.30;99.90;;;;;;4995065;28;20124;-76
2024/01/12 08:17:22;;;;;;;21.63;3.08;;;2.40;99.90;;;;;;5013039;28;20045;-76
2024/01/12 08:19:48;;;;;;;12.40;2.90;;;2.40;99.90;;;;;;5012905;28;20042;-76
2024/01/12 08:22:14;;;;;;;23.23;2.75;;;3.00;99.90;;;;;;5013101;28;20053;-75
2024/01/12 08:24:40;;;;;;;17.35;3.47;;;3.20;99.90;;;;;;5012327;28;20489;-79
2024/01/12 08:27:05;;;;;;;17.23;3.22;;;2.30;99.90;;;;;;4994597;28;20056;-77
2024/01/12 08:29:31;;;;;;;26.15;3.63;;;2.40;99.90;;;;;;5012363;28;20061;-78
2024/01/12 08:31:58;;;;;;;19.02;4.15;;;2.40;99.90;;;;;;5012638;28;20424;-77
2024/01/12 08:34:24;;;;;;;22.45;3.90;;;2.40;99.90;;;;;;4995019;28;20128;-77
2024/01/12 08:36:50;;;;;;;19.98;4.13;;;2.40;99.90;;;;;;5012673;28;20054;-78
2024/01/12 08:39:17;;;;;;;16.83;3.08;;;2.40;99.90;;;;;;4995281;28;20053;-78
2024/01/12 08:41:43;;;;;;;21.15;3.15;;;3.20;99.90;;;;;;4995364;28;20046;-78
2024/01/12 08:44:08;;;;;;;13.95;3.05;;;2.40;99.90;;;;;;5012573;28;20625;-78
2024/01/12 08:46:34;;;;;;;13.25;2.75;;;2.50;99.90;;;;;;5011867;28;20063;-79
2024/01/12 08:49:00;;;;;;;14.30;2.45;;;2.50;99.90;;;;;;5012485;28;20058;-77
2024/01/12 08:51:26;;;;;;;28.17;3.42;;;2.50;99.90;;;;;;5011663;28;20053;-78
2024/01/12 08:53:51;;;;;;;26.40;2.88;;;2.50;99.90;;;;;;4993702;28;20041;-77
2024/01/12 08:56:17;;;;;;;21.38;2.65;;;2.60;99.90;;;;;;5009278;28;20103;-78
2024/01/12 08:58:43;;;;;;;20.05;2.78;;;2.60;99.90;;;;;;5012401;28;20485;-77
2024/01/12 09:01:09;;;;;;;21.98;3.03;;;2.60;99.90;;;;;;5011731;28;20042;-77
2024/01/12 09:03:35;;;;;;;17.52;3.28;;;2.70;99.90;;;;;;5012212;28;20038;-79
2024/01/12 09:06:00;;;;;;;19.38;2.78;;;2.70;99.90;;;;;;5011645;28;20046;-78
2024/01/12 09:08:26;;;;;;;21.58;4.53;;;2.80;99.90;;;;;;5011718;28;20054;-78
2024/01/12 09:10:52;;;;;;;30.00;2.88;;;2.80;99.90;;;;;;5010555;28;20068;-77
2024/01/12 09:13:18;;;;;;;16.67;2.50;;;3.60;99.90;;;;;;5011902;28;20542;-76
2024/01/12 09:15:43;;;;;;;26.35;3.67;;;2.90;99.90;;;;;;4994085;28;20133;-78
2024/01/12 09:18:10;;;;;;;21.80;3.13;;;2.90;99.90;;;;;;5011499;28;20132;-79
2024/01/12 09:20:36;;;;;;;19.38;2.88;;;3.90;99.90;;;;;;5011926;28;20085;-79
2024/01/12 09:23:01;;;;;;;28.13;3.60;;;3.00;99.90;;;;;;5011960;28;20041;-80
2024/01/12 09:25:27;;;;;;;17.08;2.00;;;3.10;99.90;;;;;;5011921;28;20049;-78
2024/01/12 09:27:55;;;;;;;20.58;2.97;;;3.10;99.90;;;;;;5012084;28;20045;-78
2024/01/12 09:30:21;;;;;;;27.60;3.13;;;3.30;99.90;;;;;;5012286;28;20085;-77
2024/01/12 09:32:47;;;;;;;29.77;3.17;;;3.30;99.90;;;;;;5011533;28;20050;-78
2024/01/12 09:35:12;;;;;;;16.83;2.53;;;3.30;99.90;;;;;;5011789;28;20164;-79
2024/01/12 09:37:38;;;;;;;27.13;3.90;;;3.40;99.90;;;;;;4994140;28;20504;-79
2024/01/12 09:40:04;;;;;;;19.35;2.50;;;3.40;99.90;;;;;;5010851;28;20491;-78
2024/01/12 09:42:32;;;;;;;15.32;2.35;;;3.40;99.90;;;;;;4993744;28;20057;-78
2024/01/12 09:44:59;;;;;;;21.58;2.38;;;3.50;99.90;;;;;;5011161;28;20120;-81
2024/01/12 09:47:26;;;;;;;20.23;2.47;;;4.40;99.90;;;;;;5010418;28;20064;-85
2024/01/12 09:49:53;;;;;;;17.38;2.40;;;3.60;99.90;;;;;;5010474;28;20054;-79
2024/01/12 09:52:18;;;;;;;19.42;2.70;;;3.70;99.90;;;;;;5011473;28;20068;-79
2024/01/12 09:54:45;;;;;;;18.35;2.50;;;3.60;99.90;;;;;;4993309;28;20042;-79
2024/01/12 09:57:11;;;;;;;18.27;2.28;;;3.70;99.90;;;;;;5010654;28;20130;-79
2024/01/12 09:59:38;;;;;;;17.90;2.60;;;3.70;99.90;;;;;;5011074;28;20038;-79
2024/01/12 10:02:08;;;;;;;14.80;1.98;;;3.70;99.90;;;;;;5010719;28;20128;-79
2024/01/12 10:04:35;;;;;;;15.57;2.20;;;3.60;99.90;;;;;;5010588;28;20052;-80
2024/01/12 10:07:00;;;;;;;14.68;2.15;;;3.70;99.90;;;;;;5010799;28;20050;-79
2024/01/12 10:09:26;;;;;;;13.05;2.30;;;3.90;99.90;;;;;;4993383;28;20456;-80
2024/01/12 10:11:59;;;;;;;21.88;3.03;;;3.70;99.90;;;;;;5010862;28;20056;-80
2024/01/12 10:14:25;;;;;;;21.75;2.47;;;3.70;99.90;;;;;;5010662;28;20049;-81
2024/01/12 10:16:58;;;;;;;16.67;2.25;;;4.70;99.90;;;;;;4992875;28;20057;-79
2024/01/12 10:19:25;;;;;;;16.42;2.40;;;3.70;99.90;;;;;;4992724;28;20483;-80
2024/01/12 10:21:51;;;;;;;15.68;2.72;;;4.30;99.90;;;;;;5010384;28;20445;-81
2024/01/12 10:24:24;;;;;;;20.85;2.75;;;2.80;99.90;;;;;;4992816;28;20045;-80
2024/01/12 10:26:52;;;;;;;22.95;2.95;;;3.70;99.90;;;;;;5002763;28;20564;-81
2024/01/12 10:29:18;;;;;;;12.82;2.30;;;3.70;99.90;;;;;;5010385;28;20481;-82
2024/01/12 10:31:45;;;;;;;27.23;3.20;;;3.70;99.90;;;;;;5010510;28;20076;-81
2024/01/12 10:34:14;;;;;;;18.35;2.25;;;3.70;99.90;;;;;;4993204;28;20460;-81
2024/01/12 10:36:41;;;;;;;15.90;2.25;;;4.70;99.90;;;;;;5010225;28;20046;-81
2024/01/12 10:39:09;;;;;;;22.23;3.17;;;3.80;99.90;;;;;;5010600;28;20489;-82
2024/01/12 10:41:35;;;;;;;19.48;2.70;;;4.20;99.90;;;;;;5010518;28;20084;-82
2024/01/12 10:44:04;;;;;;;22.13;2.40;;;4.80;99.90;;;;;;5010024;28;20053;-81
2024/01/12 10:46:35;;;;;;;22.95;2.90;;;3.80;99.90;;;;;;4992604;28;20065;-82
2024/01/12 10:49:11;;;;;;;28.70;2.58;;;3.80;99.90;;;;;;5009974;28;20054;-82
2024/01/12 10:51:38;;;;;;;17.52;2.28;;;3.80;99.90;;;;;;4990757;28;20037;-82
2024/01/12 10:54:41;;;;;;;26.20;2.92;;;5.00;99.90;;;;;;4990886;28;20086;-82
2024/01/12 10:57:09;;;;;;;19.92;2.47;;;3.90;99.90;;;;;;4921791;29;20203;-82
2024/01/12 10:59:35;;;;;;;30.52;3.60;;;5.00;99.90;;;;;;4892891;29;20063;-82
2024/01/12 11:02:02;;;;;;;19.27;2.92;;;3.90;99.90;;;;;;4927201;29;20099;-83
2024/01/12 11:04:29;;;;;;;18.85;3.28;;;5.10;99.90;;;;;;4930046;29;20043;-83
2024/01/12 11:06:59;;;;;;;19.65;2.67;;;3.90;99.90;;;;;;4930064;29;20040;-85
2024/01/12 11:09:25;;;;;;;24.10;3.80;;;5.00;99.90;;;;;;4929283;29;20490;-83
2024/01/12 11:12:08;;;;;;;18.73;2.60;;;3.90;99.90;;;;;;4929963;29;20094;-86
2024/01/12 11:14:34;;;;;;;15.82;2.42;;;4.00;99.90;;;;;;4929647;29;20055;-81
2024/01/12 11:16:59;;;;;;;26.02;3.65;;;4.00;99.90;;;;;;4933381;29;20514;-82
2024/01/12 11:19:25;;;;;;;15.50;2.22;;;4.00;99.90;;;;;;4925599;29;20046;-85
2024/01/12 11:22:08;;;;;;;25.92;3.38;;;4.90;99.90;;;;;;4917717;29;20063;-84
2024/01/12 11:24:43;;;;;;;18.70;2.63;;;4.70;99.90;;;;;;4925627;29;20047;-85
2024/01/12 11:27:12;;;;;;;23.77;3.08;;;3.20;99.90;;;;;;4918083;29;20055;-85
2024/01/12 11:29:39;;;;;;;25.88;3.85;;;4.70;99.90;;;;;;4899634;29;20048;-83
2024/01/12 11:32:05;;;;;;;25.55;3.00;;;5.00;99.90;;;;;;4917864;29;20130;-85
2024/01/12 11:34:33;;;;;;;17.25;3.08;;;4.70;99.90;;;;;;4969350;28;20057;-85
2024/01/12 11:37:00;;;;;;;22.95;3.45;;;5.10;99.90;;;;;;4988468;28;20393;-85
2024/01/12 11:39:26;;;;;;;25.23;3.50;;;4.50;99.90;;;;;;5013499;28;20062;-85
2024/01/12 11:41:55;;;;;;;21.50;3.00;;;5.20;99.90;;;;;;5012854;28;20046;-85
2024/01/12 11:44:24;;;;;;;23.65;3.65;;;4.80;99.90;;;;;;4995732;28;20120;-85
2024/01/12 11:46:50;;;;;;;29.30;3.72;;;3.50;99.90;;;;;;5012959;28;20115;-86
2024/01/12 11:49:15;;;;;;;14.55;2.30;;;5.40;99.90;;;;;;4979640;28;20050;-86
2024/01/12 11:51:41;;;;;;;19.70;3.00;;;5.10;99.90;;;;;;4996460;28;20076;-86
2024/01/12 11:54:07;;;;;;;36.13;3.30;;;5.40;99.90;;;;;;4979736;28;20144;-87
2024/01/12 11:56:35;;;;;;;19.85;3.15;;;4.80;99.90;;;;;;4995136;28;20151;-87
2024/01/12 11:59:01;;;;;;;20.52;2.70;;;5.30;99.90;;;;;;5013092;28;20038;-85
2024/01/12 12:01:33;;;;;;;16.08;2.33;;;5.20;99.90;;;;;;4995081;28;20042;-87
2024/01/12 12:04:29;;;;;;;33.05;3.25;;;5.00;99.90;;;;;;4995544;28;20056;-89
2024/01/12 12:06:55;;;;;;;20.67;2.60;;;3.70;99.90;;;;;;5008367;28;20070;-87
2024/01/12 12:09:26;;;;;;;31.85;3.60;;;5.30;99.90;;;;;;5012749;28;20078;-88
2024/01/12 12:11:52;;;;;;;22.60;2.95;;;5.00;99.90;;;;;;4994757;28;20049;-86
2024/01/12 12:14:18;;;;;;;18.38;2.78;;;5.40;99.90;;;;;;4994911;28;20099;-86
2024/01/12 12:16:48;;;;;;;28.58;3.20;;;4.40;99.90;;;;;;4951601;29;20063;-86
2024/01/12 12:19:16;;;;;;;20.95;3.17;;;4.90;99.90;;;;;;4920520;29;20102;-87
2024/01/12 12:21:42;;;;;;;29.33;3.08;;;4.80;99.90;;;;;;4936124;29;20090;-86
2024/01/12 12:24:07;;;;;;;17.33;2.53;;;5.40;99.90;;;;;;4952299;29;20039;-86
2024/01/12 12:26:33;;;;;;;23.83;3.65;;;5.40;99.90;;;;;;4952414;28;20063;-87
2024/01/12 12:28:59;;;;;;;20.15;2.95;;;4.20;99.90;;;;;;4920362;29;20137;-86
2024/01/12 12:31:30;;;;;;;20.45;2.80;;;5.50;99.90;;;;;;4952322;29;20062;-86
2024/01/12 12:33:56;;;;;;;24.10;2.95;;;5.60;99.90;;;;;;4936431;29;20459;-86
2024/01/12 12:36:25;;;;;;;22.60;2.80;;;5.90;99.90;;;;;;4936094;29;20059;-89
2024/01/12 12:38:53;;;;;;;23.05;3.30;;;5.40;99.90;;;;;;4952139;29;20055;-89
2024/01/12 12:41:19;;;;;;;20.02;2.80;;;5.10;99.90;;;;;;4952309;29;20430;-87
2024/01/12 12:43:47;;;;;;;25.02;2.95;;;5.50;99.90;;;;;;4951428;28;20085;-85